createdAt,value
2022-07-31T00:00:29.022Z,101589.06
2022-07-31T00:02:58.472Z,101586.72
2022-07-31T00:05:26.389Z,101587.56
2022-07-31T00:07:54.983Z,101582.38
2022-07-31T00:10:22.702Z,101579.00
2022-07-31T00:12:50.456Z,101577.31
2022-07-31T00:15:18.774Z,101582.06
2022-07-31T00:17:46.537Z,101587.63
2022-07-31T00:20:17.354Z,101584.94
2022-07-31T00:22:47.060Z,101587.94
2022-07-31T00:25:16.022Z,101582.56
2022-07-31T00:27:44.176Z,101581.72
2022-07-31T00:30:13.696Z,101589.97
2022-07-31T00:32:41.750Z,101579.59
2022-07-31T00:35:10.455Z,101565.34
2022-07-31T00:37:42.435Z,101577.91
2022-07-31T00:40:12.900Z,101565.34
2022-07-31T00:42:41.127Z,101568.34
2022-07-31T00:45:09.409Z,101568.34
2022-07-31T00:47:37.402Z,101570.38
2022-07-31T00:50:08.365Z,101567.03
2022-07-31T00:52:36.168Z,101567.22
2022-07-31T00:55:06.087Z,101563.66
2022-07-31T00:57:33.816Z,101558.47
2022-07-31T01:00:01.506Z,101560.31
2022-07-31T01:02:29.532Z,101556.97
2022-07-31T01:04:57.271Z,101552.81
2022-07-31T01:07:25.962Z,101554.34
2022-07-31T01:09:55.303Z,101543.41
2022-07-31T01:12:29.390Z,101543.91
2022-07-31T01:14:59.261Z,101545.25
2022-07-31T01:17:27.951Z,101541.22
2022-07-31T01:19:55.837Z,101558.03
2022-07-31T01:22:53.900Z,101549.28
2022-07-31T01:25:32.862Z,101552.34
2022-07-31T01:28:05.816Z,101547.97
2022-07-31T01:30:38.512Z,101549.00
2022-07-31T01:33:09.631Z,101550.00
2022-07-31T01:35:42.175Z,101543.94
2022-07-31T01:38:12.863Z,101544.97
2022-07-31T01:40:44.247Z,101540.63
2022-07-31T01:43:16.322Z,101538.47
2022-07-31T01:45:46.444Z,101541.63
2022-07-31T01:48:16.269Z,101529.22
2022-07-31T01:50:45.442Z,101532.72
2022-07-31T01:53:14.627Z,101523.19
2022-07-31T01:56:01.791Z,101527.88
2022-07-31T01:58:36.117Z,101519.16
2022-07-31T02:01:06.447Z,101513.97
2022-07-31T02:03:42.666Z,101518.50
2022-07-31T02:06:11.398Z,101520.69
2022-07-31T02:08:39.815Z,101523.53
2022-07-31T02:11:08.531Z,101522.72
2022-07-31T02:13:37.278Z,101513.81
2022-07-31T02:16:06.856Z,101513.47
2022-07-31T02:18:35.430Z,101516.03
2022-07-31T02:21:03.174Z,101520.38
2022-07-31T02:23:30.934Z,101520.56
2022-07-31T02:25:59.142Z,101514.31
2022-07-31T02:28:27.430Z,101511.78
2022-07-31T02:30:55.300Z,101510.13
2022-07-31T02:33:25.787Z,101503.06
2022-07-31T02:35:56.698Z,101506.78
2022-07-31T02:38:27.263Z,101506.28
2022-07-31T02:40:57.837Z,101509.97
2022-07-31T02:43:26.656Z,101507.09
2022-07-31T02:45:55.022Z,101510.81
2022-07-31T02:48:24.972Z,101504.78
2022-07-31T02:50:52.824Z,101510.16
2022-07-31T02:53:20.666Z,101506.63
2022-07-31T02:55:48.494Z,101498.75
2022-07-31T02:58:16.323Z,101491.72
2022-07-31T03:00:44.174Z,101493.72
2022-07-31T03:03:11.970Z,101489.34
2022-07-31T03:05:41.034Z,101485.81
2022-07-31T03:08:08.727Z,101485.81
2022-07-31T03:10:36.638Z,101478.13
2022-07-31T03:13:05.183Z,101482.50
2022-07-31T03:15:33.563Z,101480.81
2022-07-31T03:18:02.082Z,101475.63
2022-07-31T03:20:41.518Z,101461.22
2022-07-31T03:23:11.421Z,101459.84
2022-07-31T03:25:39.439Z,101461.88
2022-07-31T03:28:07.122Z,101459.19
2022-07-31T03:30:35.206Z,101449.97
2022-07-31T03:33:03.646Z,101452.47
2022-07-31T03:35:31.712Z,101450.81
2022-07-31T03:38:00.840Z,101447.47
2022-07-31T03:40:48.606Z,101446.13
2022-07-31T03:43:17.054Z,101446.47
2022-07-31T03:45:45.346Z,101443.13
2022-07-31T03:48:13.593Z,101444.16
2022-07-31T03:50:41.801Z,101450.53
2022-07-31T03:53:11.291Z,101443.97
2022-07-31T03:55:40.398Z,101442.13
2022-07-31T03:58:08.717Z,101438.59
2022-07-31T04:00:36.887Z,101436.94
2022-07-31T04:03:08.711Z,101437.94
2022-07-31T04:05:36.749Z,101439.81
2022-07-31T04:08:04.609Z,101435.59
2022-07-31T04:10:34.076Z,101433.41
2022-07-31T04:13:01.771Z,101431.38
2022-07-31T04:15:29.685Z,101430.72
2022-07-31T04:17:57.413Z,101436.94
2022-07-31T04:20:25.169Z,101438.09
2022-07-31T04:22:52.905Z,101434.25
2022-07-31T04:25:23.729Z,101443.13
2022-07-31T04:27:52.870Z,101438.78
2022-07-31T04:30:20.590Z,101425.69
2022-07-31T04:32:48.623Z,101431.56
2022-07-31T04:35:16.437Z,101431.38
2022-07-31T04:37:48.547Z,101425.19
2022-07-31T04:40:17.450Z,101429.91
2022-07-31T04:42:45.218Z,101429.72
2022-07-31T04:45:14.357Z,101420.00
2022-07-31T04:47:42.103Z,101416.09
2022-07-31T04:50:10.725Z,101408.56
2022-07-31T04:52:38.430Z,101418.97
2022-07-31T04:55:07.202Z,101416.28
2022-07-31T04:57:34.918Z,101415.44
2022-07-31T05:00:02.781Z,101418.97
2022-07-31T05:02:31.965Z,101409.91
2022-07-31T05:04:59.661Z,101425.00
2022-07-31T05:07:28.786Z,101416.28
2022-07-31T05:09:57.011Z,101425.00
2022-07-31T05:12:24.720Z,101414.63
2022-07-31T05:14:53.604Z,101416.28
2022-07-31T05:17:21.434Z,101415.28
2022-07-31T05:19:50.445Z,101410.91
2022-07-31T05:22:18.808Z,101408.41
2022-07-31T05:24:46.760Z,101416.47
2022-07-31T05:27:17.375Z,101402.53
2022-07-31T05:29:47.677Z,101407.91
2022-07-31T05:32:15.619Z,101408.56
2022-07-31T05:34:43.688Z,101411.59
2022-07-31T05:37:12.804Z,101394.16
2022-07-31T05:39:40.797Z,101401.69
2022-07-31T05:42:08.754Z,101406.72
2022-07-31T05:44:36.507Z,101404.91
2022-07-31T05:47:08.007Z,101399.19
2022-07-31T05:49:35.798Z,101401.34
2022-07-31T05:52:03.741Z,101403.88
2022-07-31T05:54:33.612Z,101403.69
2022-07-31T05:57:01.467Z,101407.22
2022-07-31T05:59:29.341Z,101403.69
2022-07-31T06:01:57.481Z,101406.38
2022-07-31T06:04:25.339Z,101425.00
2022-07-31T06:06:53.133Z,101415.28
2022-07-31T06:09:20.837Z,101409.53
2022-07-31T06:11:49.978Z,101417.78
2022-07-31T06:14:17.722Z,101421.66
2022-07-31T06:16:47.764Z,101421.31
2022-07-31T06:19:15.465Z,101425.66
2022-07-31T06:21:43.218Z,101415.09
2022-07-31T06:24:10.949Z,101417.44
2022-07-31T06:26:40.980Z,101418.28
2022-07-31T06:29:12.035Z,101422.47
2022-07-31T06:31:39.872Z,101417.28
2022-07-31T06:34:07.603Z,101426.44
2022-07-31T06:36:35.343Z,101432.50
2022-07-31T06:39:03.152Z,101428.63
2022-07-31T06:41:47.266Z,101425.75
2022-07-31T06:44:17.301Z,101432.81
2022-07-31T06:46:48.844Z,101431.63
2022-07-31T06:49:17.901Z,101431.63
2022-07-31T06:51:46.177Z,101434.78
2022-07-31T06:54:13.875Z,101436.66
2022-07-31T06:56:42.050Z,101436.66
2022-07-31T06:59:09.788Z,101427.56
2022-07-31T07:01:39.089Z,101427.38
2022-07-31T07:04:07.129Z,101427.25
2022-07-31T07:06:37.444Z,101419.19
2022-07-31T07:09:05.310Z,101417.00
2022-07-31T07:11:33.125Z,101408.94
2022-07-31T07:14:00.865Z,101415.16
2022-07-31T07:16:28.551Z,101418.50
2022-07-31T07:18:58.479Z,101421.88
2022-07-31T07:21:26.373Z,101405.38
2022-07-31T07:23:54.105Z,101404.38
2022-07-31T07:26:21.861Z,101405.00
2022-07-31T07:28:49.675Z,101398.03
2022-07-31T07:31:17.476Z,101404.03
2022-07-31T07:33:45.581Z,101395.59
2022-07-31T07:36:23.426Z,101391.06
2022-07-31T07:38:55.097Z,101394.59
2022-07-31T07:41:24.086Z,101400.59
2022-07-31T07:43:52.891Z,101393.41
2022-07-31T07:46:21.669Z,101393.25
2022-07-31T07:48:51.110Z,101399.28
2022-07-31T07:51:20.681Z,101398.28
2022-07-31T07:53:48.422Z,101395.22
2022-07-31T07:56:16.583Z,101392.25
2022-07-31T07:58:44.386Z,101391.22
2022-07-31T08:01:12.206Z,101397.91
2022-07-31T08:03:49.568Z,101395.91
2022-07-31T08:06:21.097Z,101389.78
2022-07-31T08:08:49.038Z,101386.94
2022-07-31T08:11:18.247Z,101386.75
2022-07-31T08:13:50.724Z,101390.75
2022-07-31T08:16:19.699Z,101389.06
2022-07-31T08:18:47.463Z,101400.66
2022-07-31T08:21:15.200Z,101398.53
2022-07-31T08:23:44.389Z,101401.69
2022-07-31T08:26:13.134Z,101400.13
2022-07-31T08:28:50.304Z,101395.06
2022-07-31T08:31:18.902Z,101390.16
2022-07-31T08:33:46.572Z,101396.84
2022-07-31T08:36:14.266Z,101390.75
2022-07-31T08:38:42.024Z,101401.97
2022-07-31T08:41:16.129Z,101397.06
2022-07-31T08:44:01.536Z,101408.31
2022-07-31T08:46:33.303Z,101400.06
2022-07-31T08:49:01.718Z,101398.19
2022-07-31T08:51:29.967Z,101399.41
2022-07-31T08:53:58.189Z,101400.31
2022-07-31T08:56:27.588Z,101400.13
2022-07-31T08:58:57.003Z,101400.97
2022-07-31T09:01:25.033Z,101394.38
2022-07-31T09:03:53.557Z,101403.28
2022-07-31T09:06:21.359Z,101405.81
2022-07-31T09:08:49.166Z,101399.22
2022-07-31T09:11:16.882Z,101399.88
2022-07-31T09:14:02.563Z,101392.44
2022-07-31T09:16:31.403Z,101389.75
2022-07-31T09:19:00.283Z,101389.75
2022-07-31T09:21:28.330Z,101381.53
2022-07-31T09:23:56.295Z,101390.25
2022-07-31T09:26:34.638Z,101390.44
2022-07-31T09:29:08.556Z,101388.78
2022-07-31T09:31:36.744Z,101391.09
2022-07-31T09:34:04.707Z,101384.50
2022-07-31T09:36:32.619Z,101387.84
2022-07-31T09:39:04.132Z,101382.47
2022-07-31T09:42:01.691Z,101384.97
2022-07-31T09:44:25.408Z,101392.41
2022-07-31T09:46:54.083Z,101377.75
2022-07-31T09:49:31.593Z,101379.59
2022-07-31T09:51:59.453Z,101382.28
2022-07-31T09:54:28.423Z,101384.16
2022-07-31T09:56:57.067Z,101383.66
2022-07-31T09:59:26.681Z,101391.38
2022-07-31T10:01:54.716Z,101393.41
2022-07-31T10:04:23.532Z,101389.03
2022-07-31T10:06:52.803Z,101389.03
2022-07-31T10:09:22.292Z,101398.78
2022-07-31T10:11:51.497Z,101394.41
2022-07-31T10:14:23.565Z,101393.25
2022-07-31T10:16:53.959Z,101393.06
2022-07-31T10:19:24.432Z,101390.81
2022-07-31T10:21:57.007Z,101380.56
2022-07-31T10:24:28.279Z,101374.56
2022-07-31T10:27:00.733Z,101373.53
2022-07-31T10:29:32.771Z,101385.75
2022-07-31T10:32:02.457Z,101383.47
2022-07-31T10:34:30.327Z,101377.19
2022-07-31T10:37:11.186Z,101374.69
2022-07-31T10:39:45.472Z,101367.44
2022-07-31T10:42:19.133Z,101374.47
2022-07-31T10:44:49.542Z,101368.16
2022-07-31T10:47:19.557Z,101362.91
2022-07-31T10:52:07.496Z,101370.97
2022-07-31T10:54:42.694Z,101366.41
2022-07-31T10:57:10.931Z,101359.06
2022-07-31T10:59:42.884Z,101361.38
2022-07-31T11:02:12.430Z,101352.94
2022-07-31T11:04:40.276Z,101354.59
2022-07-31T11:07:19.971Z,101367.03
2022-07-31T11:09:51.353Z,101359.22
2022-07-31T11:12:19.951Z,101358.03
2022-07-31T11:14:47.714Z,101362.22
2022-07-31T11:17:15.575Z,101364.25
2022-07-31T11:19:44.849Z,101361.28
2022-07-31T11:22:31.864Z,101365.00
2022-07-31T11:25:03.016Z,101365.47
2022-07-31T11:27:31.671Z,101355.91
2022-07-31T11:30:10.705Z,101349.03
2022-07-31T11:32:41.129Z,101360.53
2022-07-31T11:35:09.471Z,101350.44
2022-07-31T11:37:46.322Z,101343.75
2022-07-31T11:40:27.251Z,101351.34
2022-07-31T11:43:24.217Z,101348.84
2022-07-31T11:45:48.578Z,101359.63
2022-07-31T11:48:19.354Z,101340.03
2022-07-31T11:50:47.853Z,101344.16
2022-07-31T11:53:15.823Z,101349.31
2022-07-31T11:55:52.734Z,101351.50
2022-07-31T11:58:21.865Z,101350.19
2022-07-31T12:00:55.915Z,101338.59
2022-07-31T12:03:26.745Z,101339.44
2022-07-31T12:05:55.481Z,101343.59
2022-07-31T12:08:24.262Z,101347.97
2022-07-31T12:10:54.778Z,101344.91
2022-07-31T12:13:23.566Z,101335.03
2022-07-31T12:15:59.612Z,101339.19
2022-07-31T12:18:28.280Z,101340.88
2022-07-31T12:20:58.135Z,101333.81
2022-07-31T12:23:41.117Z,101317.28
2022-07-31T12:26:13.484Z,101316.66
2022-07-31T12:28:41.381Z,101319.44
2022-07-31T12:31:09.101Z,101318.22
2022-07-31T12:33:45.871Z,101309.50
2022-07-31T12:36:15.252Z,101312.22
2022-07-31T12:38:45.560Z,101294.59
2022-07-31T12:41:17.612Z,101303.31
2022-07-31T12:43:51.949Z,101307.00
2022-07-31T12:46:21.498Z,101303.66
2022-07-31T12:48:49.348Z,101297.44
2022-07-31T12:51:45.793Z,101293.75
2022-07-31T12:54:09.174Z,101290.03
2022-07-31T12:56:40.565Z,101297.09
2022-07-31T12:59:09.469Z,101300.81
2022-07-31T13:01:42.211Z,101287.50
2022-07-31T13:04:18.917Z,101290.19
2022-07-31T13:06:48.885Z,101293.75
2022-07-31T13:09:17.058Z,101287.50
2022-07-31T13:11:48.340Z,101286.22
2022-07-31T13:14:16.646Z,101283.97
2022-07-31T13:16:44.468Z,101290.38
2022-07-31T13:19:12.933Z,101279.63
2022-07-31T13:21:49.098Z,101279.81
2022-07-31T13:24:18.129Z,101270.91
2022-07-31T13:26:47.348Z,101266.75
2022-07-31T13:29:16.563Z,101266.84
2022-07-31T13:31:44.460Z,101270.00
2022-07-31T13:34:12.271Z,101269.06
2022-07-31T13:36:40.344Z,101262.47
2022-07-31T13:39:10.787Z,101256.31
2022-07-31T13:41:39.678Z,101261.16
2022-07-31T13:44:09.770Z,101254.94
2022-07-31T13:46:37.772Z,101251.41
2022-07-31T13:49:08.707Z,101244.34
2022-07-31T13:51:37.348Z,101253.72
2022-07-31T13:54:05.349Z,101252.06
2022-07-31T13:56:39.526Z,101251.03
2022-07-31T13:59:17.780Z,101252.69
2022-07-31T14:02:02.999Z,101245.25
2022-07-31T14:04:38.313Z,101255.66
2022-07-31T14:07:07.493Z,101248.16
2022-07-31T14:09:36.084Z,101236.63
2022-07-31T14:12:04.928Z,101243.47
2022-07-31T14:14:34.881Z,101232.09
2022-07-31T14:17:02.673Z,101234.66
2022-07-31T14:19:30.445Z,101238.19
2022-07-31T14:22:11.865Z,101229.91
2022-07-31T14:24:40.888Z,101220.16
2022-07-31T14:27:08.742Z,101232.25
2022-07-31T14:29:37.921Z,101220.25
2022-07-31T14:32:06.422Z,101228.78
2022-07-31T14:34:35.451Z,101217.63
2022-07-31T14:37:04.831Z,101218.25
2022-07-31T14:39:32.794Z,101211.75
2022-07-31T14:43:27.214Z,101212.66
2022-07-31T14:45:54.955Z,101219.53
2022-07-31T14:48:23.040Z,101212.91
2022-07-31T14:50:50.748Z,101209.81
2022-07-31T14:53:18.479Z,101220.16
2022-07-31T14:55:46.264Z,101215.63
2022-07-31T14:58:14.006Z,101203.19
2022-07-31T15:00:43.083Z,101206.13
2022-07-31T15:03:10.896Z,101202.84
2022-07-31T15:06:37.666Z,101201.44
2022-07-31T15:08:29.999Z,101202.97
2022-07-31T15:10:57.887Z,101216.88
2022-07-31T15:13:27.515Z,101200.91
2022-07-31T15:15:56.649Z,101200.91
2022-07-31T15:18:26.581Z,101196.34
2022-07-31T15:20:54.375Z,101200.06
2022-07-31T15:23:22.215Z,101190.94
2022-07-31T15:25:49.940Z,101189.34
2022-07-31T15:28:17.713Z,101199.28
2022-07-31T15:30:45.959Z,101187.22
2022-07-31T15:33:15.095Z,101187.88
2022-07-31T15:35:42.885Z,101198.25
2022-07-31T15:38:13.538Z,101186.84
2022-07-31T15:40:41.277Z,101189.91
2022-07-31T15:43:08.985Z,101190.56
2022-07-31T15:45:38.762Z,101184.72
2022-07-31T15:48:10.100Z,101186.66
2022-07-31T15:50:39.579Z,101185.81
2022-07-31T15:53:07.325Z,101194.28
2022-07-31T15:55:35.000Z,101184.66
2022-07-31T15:58:02.624Z,101198.75
2022-07-31T16:00:30.370Z,101186.19
2022-07-31T16:02:58.074Z,101210.16
2022-07-31T16:05:37.054Z,101216.19
2022-07-31T16:08:32.839Z,101218.16
2022-07-31T16:10:56.720Z,101212.59
2022-07-31T16:13:25.085Z,101217.81
2022-07-31T16:15:53.065Z,101216.25
2022-07-31T16:18:22.519Z,101221.38
2022-07-31T16:20:50.253Z,101222.09
2022-07-31T16:24:37.222Z,101222.88
2022-07-31T16:27:05.341Z,101214.09
2022-07-31T16:29:57.827Z,101216.16
2022-07-31T16:32:20.878Z,101212.44
2022-07-31T16:34:52.713Z,101211.72
2022-07-31T16:37:21.782Z,101207.66
2022-07-31T16:40:29.024Z,101209.97
2022-07-31T16:43:00.756Z,101213.94
2022-07-31T16:45:28.809Z,101214.31
2022-07-31T16:48:00.096Z,101207.38
2022-07-31T16:50:27.817Z,101218.34
2022-07-31T16:52:55.630Z,101200.66
2022-07-31T16:56:00.003Z,101214.69
2022-07-31T16:58:14.974Z,101205.78
2022-07-31T17:00:42.744Z,101207.44
2022-07-31T17:03:59.361Z,101198.34
2022-07-31T17:05:58.410Z,101188.81
2022-07-31T17:08:26.116Z,101196.31
2022-07-31T17:10:55.097Z,101198.34
2022-07-31T17:13:23.365Z,101202.72
2022-07-31T17:15:51.107Z,101205.91
2022-07-31T17:18:21.058Z,101208.91
2022-07-31T17:20:48.738Z,101208.63
2022-07-31T17:23:16.586Z,101202.38
2022-07-31T17:26:05.780Z,101204.66
2022-07-31T17:28:33.502Z,101197.81
2022-07-31T17:31:02.421Z,101203.66
2022-07-31T17:34:00.703Z,101195.13
2022-07-31T17:36:17.989Z,101210.78
2022-07-31T17:38:45.706Z,101202.72
2022-07-31T17:41:24.662Z,101201.34
2022-07-31T17:43:53.713Z,101207.16
2022-07-31T17:47:07.453Z,101204.66
2022-07-31T17:49:11.491Z,101207.53
2022-07-31T17:51:59.872Z,101205.22
2022-07-31T17:54:28.721Z,101216.63
2022-07-31T17:56:57.924Z,101208.72
2022-07-31T17:59:25.615Z,101201.69
2022-07-31T18:01:59.548Z,101203.75
2022-07-31T18:04:30.365Z,101200.41
2022-07-31T18:06:58.422Z,101212.34
2022-07-31T18:09:26.231Z,101210.53
2022-07-31T18:11:58.944Z,101207.84
2022-07-31T18:14:27.106Z,101206.13
2022-07-31T18:16:54.835Z,101206.13
2022-07-31T18:19:25.730Z,101212.19
2022-07-31T18:21:55.855Z,101207.16
2022-07-31T18:24:23.999Z,101213.84
2022-07-31T18:26:53.802Z,101216.16
2022-07-31T18:29:23.070Z,101207.91
2022-07-31T18:31:50.926Z,101204.22
2022-07-31T18:34:18.702Z,101212.09
2022-07-31T18:36:46.557Z,101212.09
2022-07-31T18:39:15.092Z,101213.38
2022-07-31T18:41:48.342Z,101203.00
2022-07-31T18:44:16.791Z,101214.78
2022-07-31T18:46:45.906Z,101213.75
2022-07-31T18:51:00.751Z,101213.38
2022-07-31T18:52:01.967Z,101214.88
2022-07-31T18:54:30.113Z,101222.13
2022-07-31T18:56:57.878Z,101221.09
2022-07-31T18:59:28.388Z,101219.78
2022-07-31T19:02:00.634Z,101223.69
2022-07-31T19:04:28.649Z,101226.56
2022-07-31T19:06:56.554Z,101222.56
2022-07-31T19:09:27.882Z,101226.47
2022-07-31T19:11:58.751Z,101228.03
2022-07-31T19:14:26.711Z,101229.88
2022-07-31T19:16:57.826Z,101225.03
2022-07-31T19:19:28.437Z,101239.22
2022-07-31T19:22:14.820Z,101231.47
2022-07-31T19:24:45.208Z,101233.41
2022-07-31T19:27:13.066Z,101231.94
2022-07-31T19:29:42.553Z,101232.94
2022-07-31T19:32:11.432Z,101233.31
2022-07-31T19:34:42.191Z,101239.34
2022-07-31T19:37:15.940Z,101237.31
2022-07-31T19:39:43.679Z,101247.06
2022-07-31T19:42:13.433Z,101250.09
2022-07-31T19:44:41.124Z,101251.09
2022-07-31T19:47:11.870Z,101252.13
2022-07-31T19:51:37.365Z,101250.84
2022-07-31T19:54:05.368Z,101258.25
2022-07-31T19:56:32.985Z,101249.91
2022-07-31T19:59:03.735Z,101268.72
2022-07-31T20:01:35.862Z,101266.38
2022-07-31T20:04:03.632Z,101268.44
2022-07-31T20:06:34.282Z,101270.47
2022-07-31T20:09:06.523Z,101272.84
2022-07-31T20:11:37.386Z,101279.97
2022-07-31T20:14:05.097Z,101269.94
2022-07-31T20:16:33.196Z,101272.34
2022-07-31T20:19:01.291Z,101278.03
2022-07-31T20:21:32.493Z,101279.06
2022-07-31T20:24:04.610Z,101270.34
2022-07-31T20:26:36.333Z,101274.88
2022-07-31T20:29:04.533Z,101278.03
2022-07-31T20:31:33.074Z,101278.75
2022-07-31T20:34:04.077Z,101275.03
2022-07-31T20:36:32.029Z,101275.19
2022-07-31T20:38:59.722Z,101276.38
2022-07-31T20:41:32.297Z,101279.06
2022-07-31T20:44:00.406Z,101277.38
2022-07-31T20:46:28.638Z,101248.63
2022-07-31T20:48:57.316Z,101274.88
2022-07-31T20:51:25.110Z,101281.94
2022-07-31T20:53:53.752Z,101277.38
2022-07-31T20:56:22.208Z,101269.13
2022-07-31T20:58:52.196Z,101275.72
2022-07-31T21:01:21.109Z,101280.97
2022-07-31T21:03:49.042Z,101283.28
2022-07-31T21:06:19.270Z,101282.00
2022-07-31T21:08:47.050Z,101279.50
2022-07-31T21:11:14.782Z,101294.94
2022-07-31T21:13:43.181Z,101282.88
2022-07-31T21:16:12.419Z,101290.31
2022-07-31T21:18:43.264Z,101287.31
2022-07-31T21:21:11.240Z,101285.97
2022-07-31T21:23:39.277Z,101301.44
2022-07-31T21:26:07.961Z,101300.28
2022-07-31T21:28:36.379Z,101301.84
2022-07-31T21:31:05.404Z,101294.50
2022-07-31T21:33:35.287Z,101303.25
2022-07-31T21:36:03.276Z,101305.28
2022-07-31T21:38:31.329Z,101292.88
2022-07-31T21:40:59.500Z,101307.31
2022-07-31T21:43:30.414Z,101303.63
2022-07-31T21:46:06.626Z,101297.56
2022-07-31T21:48:38.291Z,101301.44
2022-07-31T21:51:06.680Z,101305.59
2022-07-31T21:53:35.555Z,101298.25
2022-07-31T21:56:04.337Z,101298.91
2022-07-31T21:58:32.253Z,101303.25
2022-07-31T22:01:00.123Z,101307.97
2022-07-31T22:03:27.872Z,101303.63
2022-07-31T22:06:14.701Z,101313.66
2022-07-31T22:08:42.512Z,101313.00
2022-07-31T22:11:10.445Z,101311.34
2022-07-31T22:13:38.210Z,101314.03
2022-07-31T22:16:06.670Z,101315.88
2022-07-31T22:18:35.513Z,101313.72
2022-07-31T22:21:07.501Z,101316.75
2022-07-31T22:23:35.871Z,101322.78
2022-07-31T22:26:03.919Z,101321.09
2022-07-31T22:28:32.202Z,101328.81
2022-07-31T22:31:00.290Z,101326.50
2022-07-31T22:33:28.172Z,101334.06
2022-07-31T22:36:00.381Z,101337.72
2022-07-31T22:38:30.767Z,101329.00
2022-07-31T22:40:59.232Z,101338.06
2022-07-31T22:44:10.589Z,101336.88
2022-07-31T22:46:15.662Z,101336.22
2022-07-31T22:48:45.695Z,101323.84
2022-07-31T22:51:14.986Z,101339.91
2022-07-31T22:53:49.101Z,101333.91
2022-07-31T22:56:17.154Z,101348.63
2022-07-31T22:58:44.887Z,101340.56
2022-07-31T23:01:12.647Z,101347.31
2022-07-31T23:03:40.422Z,101352.69
2022-07-31T23:06:30.698Z,101348.66
2022-07-31T23:08:57.370Z,101346.81
2022-07-31T23:11:25.507Z,101355.69
2022-07-31T23:13:53.663Z,101350.69
2022-07-31T23:16:21.617Z,101357.91
2022-07-31T23:18:49.538Z,101357.72
2022-07-31T23:21:17.287Z,101357.72
2022-07-31T23:23:49.021Z,101363.09
2022-07-31T23:26:19.383Z,101359.75
2022-07-31T23:28:47.680Z,101362.59
2022-07-31T23:31:15.814Z,101354.88
2022-07-31T23:33:43.939Z,101360.06
2022-07-31T23:36:11.670Z,101361.25
2022-07-31T23:38:39.546Z,101364.41
2022-07-31T23:41:07.336Z,101362.59
2022-07-31T23:43:35.813Z,101367.78
2022-07-31T23:46:03.667Z,101364.41
2022-07-31T23:48:32.789Z,101359.75
2022-07-31T23:51:00.557Z,101368.81
2022-07-31T23:53:28.405Z,101369.97
2022-07-31T23:55:56.155Z,101364.59
2022-07-31T23:58:23.840Z,101367.09
